sensor_id;sensor_type;location;lat;lon;timestamp;P1;durP1;ratioP1;P2;durP2;ratioP2
61013;SDS011;46899;47.542;19.082;2024-03-22T00:02:08;24.60;;;13.35;;
61013;SDS011;46899;47.542;19.082;2024-03-22T00:05:12;22.60;;;12.05;;
61013;SDS011;46899;47.542;19.082;2024-03-22T00:08:14;24.05;;;12.98;;
61013;SDS011;46899;47.542;19.082;2024-03-22T00:11:17;24.70;;;12.52;;
61013;SDS011;46899;47.542;19.082;2024-03-22T00:14:18;31.15;;;13.07;;
61013;SDS011;46899;47.542;19.082;2024-03-22T00:17:20;24.35;;;12.32;;
61013;SDS011;46899;47.542;19.082;2024-03-22T00:20:22;25.88;;;12.45;;
61013;SDS011;46899;47.542;19.082;2024-03-22T00:23:24;29.48;;;13.68;;
61013;SDS011;46899;47.542;19.082;2024-03-22T00:26:27;25.52;;;12.82;;
61013;SDS011;46899;47.542;19.082;2024-03-22T00:29:29;25.23;;;13.38;;
61013;SDS011;46899;47.542;19.082;2024-03-22T00:32:30;24.58;;;12.48;;
61013;SDS011;46899;47.542;19.082;2024-03-22T00:35:33;22.62;;;12.37;;
61013;SDS011;46899;47.542;19.082;2024-03-22T00:38:34;27.70;;;13.62;;
61013;SDS011;46899;47.542;19.082;2024-03-22T00:41:37;21.73;;;12.40;;
61013;SDS011;46899;47.542;19.082;2024-03-22T00:44:39;22.00;;;12.63;;
61013;SDS011;46899;47.542;19.082;2024-03-22T00:47:41;25.15;;;13.27;;
61013;SDS011;46899;47.542;19.082;2024-03-22T00:50:43;22.80;;;12.32;;
61013;SDS011;46899;47.542;19.082;2024-03-22T00:53:45;25.08;;;13.43;;
61013;SDS011;46899;47.542;19.082;2024-03-22T00:56:47;21.23;;;12.00;;
61013;SDS011;46899;47.542;19.082;2024-03-22T00:59:50;24.35;;;12.27;;
61013;SDS011;46899;47.542;19.082;2024-03-22T01:02:52;19.87;;;11.98;;
61013;SDS011;46899;47.542;19.082;2024-03-22T01:05:54;20.90;;;12.30;;
61013;SDS011;46899;47.542;19.082;2024-03-22T01:08:56;22.20;;;13.10;;
61013;SDS011;46899;47.542;19.082;2024-03-22T01:11:58;22.98;;;12.07;;
61013;SDS011;46899;47.542;19.082;2024-03-22T01:15:00;22.98;;;12.15;;
61013;SDS011;46899;47.542;19.082;2024-03-22T01:18:02;26.42;;;12.73;;
61013;SDS011;46899;47.542;19.082;2024-03-22T01:21:04;24.70;;;12.98;;
61013;SDS011;46899;47.542;19.082;2024-03-22T01:24:09;24.67;;;12.90;;
61013;SDS011;46899;47.542;19.082;2024-03-22T01:27:11;27.48;;;13.25;;
61013;SDS011;46899;47.542;19.082;2024-03-22T01:30:13;25.50;;;12.90;;
61013;SDS011;46899;47.542;19.082;2024-03-22T01:33:15;23.65;;;12.98;;
61013;SDS011;46899;47.542;19.082;2024-03-22T01:36:17;19.60;;;11.85;;
61013;SDS011;46899;47.542;19.082;2024-03-22T01:39:20;25.15;;;13.52;;
61013;SDS011;46899;47.542;19.082;2024-03-22T01:42:25;22.40;;;11.88;;
61013;SDS011;46899;47.542;19.082;2024-03-22T01:45:27;28.42;;;13.13;;
61013;SDS011;46899;47.542;19.082;2024-03-22T01:48:34;22.20;;;12.07;;
61013;SDS011;46899;47.542;19.082;2024-03-22T01:51:36;23.40;;;11.88;;
61013;SDS011;46899;47.542;19.082;2024-03-22T01:54:38;23.62;;;11.60;;
61013;SDS011;46899;47.542;19.082;2024-03-22T01:57:40;25.15;;;12.68;;
61013;SDS011;46899;47.542;19.082;2024-03-22T02:00:43;23.23;;;12.45;;
61013;SDS011;46899;47.542;19.082;2024-03-22T02:03:45;23.42;;;13.10;;
61013;SDS011;46899;47.542;19.082;2024-03-22T02:06:46;24.12;;;11.98;;
61013;SDS011;46899;47.542;19.082;2024-03-22T02:09:48;19.87;;;11.68;;
61013;SDS011;46899;47.542;19.082;2024-03-22T02:12:50;20.25;;;12.65;;
61013;SDS011;46899;47.542;19.082;2024-03-22T02:15:52;25.27;;;13.15;;
61013;SDS011;46899;47.542;19.082;2024-03-22T02:18:54;23.27;;;12.23;;
61013;SDS011;46899;47.542;19.082;2024-03-22T02:21:56;23.67;;;12.45;;
61013;SDS011;46899;47.542;19.082;2024-03-22T02:24:58;28.83;;;13.77;;
61013;SDS011;46899;47.542;19.082;2024-03-22T02:28:00;22.83;;;12.37;;
61013;SDS011;46899;47.542;19.082;2024-03-22T02:31:02;22.33;;;12.90;;
61013;SDS011;46899;47.542;19.082;2024-03-22T02:34:04;24.27;;;13.55;;
61013;SDS011;46899;47.542;19.082;2024-03-22T02:37:06;26.35;;;13.82;;
61013;SDS011;46899;47.542;19.082;2024-03-22T02:40:08;22.35;;;13.20;;
61013;SDS011;46899;47.542;19.082;2024-03-22T02:43:11;23.17;;;13.38;;
61013;SDS011;46899;47.542;19.082;2024-03-22T02:46:13;25.85;;;13.98;;
61013;SDS011;46899;47.542;19.082;2024-03-22T02:49:15;24.80;;;13.65;;
61013;SDS011;46899;47.542;19.082;2024-03-22T02:52:17;26.83;;;15.00;;
61013;SDS011;46899;47.542;19.082;2024-03-22T02:55:19;28.73;;;14.38;;
61013;SDS011;46899;47.542;19.082;2024-03-22T02:58:21;25.60;;;14.70;;
61013;SDS011;46899;47.542;19.082;2024-03-22T03:01:23;22.95;;;13.50;;
61013;SDS011;46899;47.542;19.082;2024-03-22T03:04:26;24.20;;;13.65;;
61013;SDS011;46899;47.542;19.082;2024-03-22T03:07:27;25.42;;;14.20;;
61013;SDS011;46899;47.542;19.082;2024-03-22T03:10:30;25.85;;;14.57;;
61013;SDS011;46899;47.542;19.082;2024-03-22T03:13:31;22.50;;;13.43;;
61013;SDS011;46899;47.542;19.082;2024-03-22T03:16:33;23.38;;;13.05;;
61013;SDS011;46899;47.542;19.082;2024-03-22T03:19:35;31.17;;;15.18;;
61013;SDS011;46899;47.542;19.082;2024-03-22T03:22:38;23.12;;;13.95;;
61013;SDS011;46899;47.542;19.082;2024-03-22T03:25:40;23.05;;;13.27;;
61013;SDS011;46899;47.542;19.082;2024-03-22T03:28:42;23.92;;;14.10;;
61013;SDS011;46899;47.542;19.082;2024-03-22T03:31:44;25.50;;;14.07;;
61013;SDS011;46899;47.542;19.082;2024-03-22T03:34:46;23.15;;;13.43;;
61013;SDS011;46899;47.542;19.082;2024-03-22T03:37:48;22.52;;;15.05;;
61013;SDS011;46899;47.542;19.082;2024-03-22T03:40:51;23.02;;;13.05;;
61013;SDS011;46899;47.542;19.082;2024-03-22T03:43:53;21.75;;;14.45;;
61013;SDS011;46899;47.542;19.082;2024-03-22T03:46:55;23.33;;;14.00;;
61013;SDS011;46899;47.542;19.082;2024-03-22T03:49:57;26.45;;;14.02;;
61013;SDS011;46899;47.542;19.082;2024-03-22T03:52:59;25.12;;;14.73;;
61013;SDS011;46899;47.542;19.082;2024-03-22T03:56:01;21.85;;;14.63;;
61013;SDS011;46899;47.542;19.082;2024-03-22T03:59:03;23.77;;;14.90;;
61013;SDS011;46899;47.542;19.082;2024-03-22T04:02:05;24.05;;;14.20;;
61013;SDS011;46899;47.542;19.082;2024-03-22T04:05:07;23.23;;;14.30;;
61013;SDS011;46899;47.542;19.082;2024-03-22T04:08:09;24.80;;;13.98;;
61013;SDS011;46899;47.542;19.082;2024-03-22T04:11:11;24.00;;;14.75;;
61013;SDS011;46899;47.542;19.082;2024-03-22T04:14:13;22.95;;;14.32;;
61013;SDS011;46899;47.542;19.082;2024-03-22T04:17:16;23.75;;;14.87;;
61013;SDS011;46899;47.542;19.082;2024-03-22T04:20:17;22.55;;;14.73;;
61013;SDS011;46899;47.542;19.082;2024-03-22T04:23:20;22.27;;;14.73;;
61013;SDS011;46899;47.542;19.082;2024-03-22T04:26:22;22.17;;;14.55;;
61013;SDS011;46899;47.542;19.082;2024-03-22T04:29:24;21.77;;;14.65;;
61013;SDS011;46899;47.542;19.082;2024-03-22T04:32:26;22.15;;;14.13;;
61013;SDS011;46899;47.542;19.082;2024-03-22T04:35:28;23.23;;;14.40;;
61013;SDS011;46899;47.542;19.082;2024-03-22T04:38:30;26.15;;;15.70;;
61013;SDS011;46899;47.542;19.082;2024-03-22T04:41:32;23.48;;;14.48;;
61013;SDS011;46899;47.542;19.082;2024-03-22T04:44:34;20.70;;;14.40;;
61013;SDS011;46899;47.542;19.082;2024-03-22T04:47:36;22.83;;;14.77;;
61013;SDS011;46899;47.542;19.082;2024-03-22T04:50:38;23.08;;;14.32;;
61013;SDS011;46899;47.542;19.082;2024-03-22T04:53:41;21.85;;;13.65;;
61013;SDS011;46899;47.542;19.082;2024-03-22T04:56:42;23.27;;;14.52;;
61013;SDS011;46899;47.542;19.082;2024-03-22T04:59:45;20.98;;;13.62;;
61013;SDS011;46899;47.542;19.082;2024-03-22T05:02:46;22.42;;;14.10;;
61013;SDS011;46899;47.542;19.082;2024-03-22T05:05:49;22.13;;;14.70;;
61013;SDS011;46899;47.542;19.082;2024-03-22T05:08:51;20.05;;;13.60;;
61013;SDS011;46899;47.542;19.082;2024-03-22T05:11:53;21.17;;;14.13;;
61013;SDS011;46899;47.542;19.082;2024-03-22T05:14:55;21.95;;;14.75;;
61013;SDS011;46899;47.542;19.082;2024-03-22T05:17:57;20.80;;;14.40;;
61013;SDS011;46899;47.542;19.082;2024-03-22T05:20:59;22.02;;;14.32;;
61013;SDS011;46899;47.542;19.082;2024-03-22T05:24:02;20.75;;;13.80;;
61013;SDS011;46899;47.542;19.082;2024-03-22T05:27:04;21.70;;;14.02;;
61013;SDS011;46899;47.542;19.082;2024-03-22T05:30:06;20.80;;;13.73;;
61013;SDS011;46899;47.542;19.082;2024-03-22T05:33:09;18.27;;;14.00;;
61013;SDS011;46899;47.542;19.082;2024-03-22T05:36:11;20.23;;;13.45;;
61013;SDS011;46899;47.542;19.082;2024-03-22T05:39:12;24.37;;;14.30;;
61013;SDS011;46899;47.542;19.082;2024-03-22T05:42:15;23.55;;;13.55;;
61013;SDS011;46899;47.542;19.082;2024-03-22T05:45:17;21.73;;;13.32;;
61013;SDS011;46899;47.542;19.082;2024-03-22T05:48:18;21.70;;;13.82;;
61013;SDS011;46899;47.542;19.082;2024-03-22T05:51:20;20.50;;;13.98;;
61013;SDS011;46899;47.542;19.082;2024-03-22T05:54:22;16.80;;;12.43;;
61013;SDS011;46899;47.542;19.082;2024-03-22T05:57:24;19.40;;;14.07;;
61013;SDS011;46899;47.542;19.082;2024-03-22T06:00:26;21.33;;;13.25;;
61013;SDS011;46899;47.542;19.082;2024-03-22T06:03:29;20.90;;;13.25;;
61013;SDS011;46899;47.542;19.082;2024-03-22T06:06:34;21.05;;;13.25;;
61013;SDS011;46899;47.542;19.082;2024-03-22T06:09:36;19.85;;;13.43;;
61013;SDS011;46899;47.542;19.082;2024-03-22T06:12:38;19.12;;;12.70;;
61013;SDS011;46899;47.542;19.082;2024-03-22T06:15:42;18.73;;;12.65;;
61013;SDS011;46899;47.542;19.082;2024-03-22T06:18:48;22.98;;;13.75;;
61013;SDS011;46899;47.542;19.082;2024-03-22T06:21:50;20.73;;;13.80;;
61013;SDS011;46899;47.542;19.082;2024-03-22T06:24:53;17.15;;;12.10;;
61013;SDS011;46899;47.542;19.082;2024-03-22T06:27:58;18.52;;;12.85;;
61013;SDS011;46899;47.542;19.082;2024-03-22T06:30:59;19.50;;;12.93;;
61013;SDS011;46899;47.542;19.082;2024-03-22T06:34:01;20.70;;;12.98;;
61013;SDS011;46899;47.542;19.082;2024-03-22T06:37:03;19.48;;;12.50;;
61013;SDS011;46899;47.542;19.082;2024-03-22T06:40:06;18.33;;;12.02;;
61013;SDS011;46899;47.542;19.082;2024-03-22T06:43:09;17.12;;;12.43;;
61013;SDS011;46899;47.542;19.082;2024-03-22T06:46:11;21.92;;;13.38;;
61013;SDS011;46899;47.542;19.082;2024-03-22T06:49:12;20.15;;;13.15;;
61013;SDS011;46899;47.542;19.082;2024-03-22T06:52:15;17.02;;;12.40;;
61013;SDS011;46899;47.542;19.082;2024-03-22T06:55:16;19.42;;;12.63;;
61013;SDS011;46899;47.542;19.082;2024-03-22T06:58:19;22.02;;;13.50;;
61013;SDS011;46899;47.542;19.082;2024-03-22T07:01:21;19.48;;;13.48;;
61013;SDS011;46899;47.542;19.082;2024-03-22T07:04:22;19.48;;;13.62;;
61013;SDS011;46899;47.542;19.082;2024-03-22T07:07:24;19.62;;;12.93;;
61013;SDS011;46899;47.542;19.082;2024-03-22T07:10:26;18.55;;;14.00;;
61013;SDS011;46899;47.542;19.082;2024-03-22T07:13:29;24.10;;;14.13;;
61013;SDS011;46899;47.542;19.082;2024-03-22T07:16:31;21.87;;;14.02;;
61013;SDS011;46899;47.542;19.082;2024-03-22T07:19:32;19.70;;;13.15;;
61013;SDS011;46899;47.542;19.082;2024-03-22T07:22:36;18.65;;;13.30;;
61013;SDS011;46899;47.542;19.082;2024-03-22T07:25:40;20.02;;;13.62;;
61013;SDS011;46899;47.542;19.082;2024-03-22T07:28:44;24.73;;;13.85;;
61013;SDS011;46899;47.542;19.082;2024-03-22T07:31:46;19.02;;;13.62;;
61013;SDS011;46899;47.542;19.082;2024-03-22T07:34:48;19.75;;;14.07;;
61013;SDS011;46899;47.542;19.082;2024-03-22T07:37:50;20.95;;;13.60;;
61013;SDS011;46899;47.542;19.082;2024-03-22T07:40:52;20.95;;;13.50;;
61013;SDS011;46899;47.542;19.082;2024-03-22T07:43:54;20.00;;;14.13;;
61013;SDS011;46899;47.542;19.082;2024-03-22T07:46:56;18.40;;;14.35;;
61013;SDS011;46899;47.542;19.082;2024-03-22T07:49:57;19.67;;;13.55;;
61013;SDS011;46899;47.542;19.082;2024-03-22T07:52:59;22.15;;;14.65;;
61013;SDS011;46899;47.542;19.082;2024-03-22T07:56:01;21.60;;;13.85;;
61013;SDS011;46899;47.542;19.082;2024-03-22T07:59:04;21.05;;;14.18;;
61013;SDS011;46899;47.542;19.082;2024-03-22T08:02:06;17.65;;;13.48;;
61013;SDS011;46899;47.542;19.082;2024-03-22T08:05:08;21.10;;;13.98;;
61013;SDS011;46899;47.542;19.082;2024-03-22T08:08:11;19.05;;;13.60;;
61013;SDS011;46899;47.542;19.082;2024-03-22T08:11:13;20.90;;;13.52;;
61013;SDS011;46899;47.542;19.082;2024-03-22T08:14:15;20.08;;;14.63;;
61013;SDS011;46899;47.542;19.082;2024-03-22T08:17:17;20.25;;;13.70;;
61013;SDS011;46899;47.542;19.082;2024-03-22T08:20:19;24.92;;;14.40;;
61013;SDS011;46899;47.542;19.082;2024-03-22T08:23:21;21.17;;;14.02;;
61013;SDS011;46899;47.542;19.082;2024-03-22T08:26:24;20.25;;;14.02;;
61013;SDS011;46899;47.542;19.082;2024-03-22T08:29:26;20.05;;;13.93;;
61013;SDS011;46899;47.542;19.082;2024-03-22T08:32:27;23.55;;;14.00;;
61013;SDS011;46899;47.542;19.082;2024-03-22T08:35:30;19.42;;;13.62;;
61013;SDS011;46899;47.542;19.082;2024-03-22T08:38:32;21.33;;;14.68;;
61013;SDS011;46899;47.542;19.082;2024-03-22T08:41:34;18.73;;;14.00;;
61013;SDS011;46899;47.542;19.082;2024-03-22T08:44:36;21.62;;;14.82;;
61013;SDS011;46899;47.542;19.082;2024-03-22T08:47:38;19.42;;;14.27;;
61013;SDS011;46899;47.542;19.082;2024-03-22T08:50:42;18.75;;;14.18;;
61013;SDS011;46899;47.542;19.082;2024-03-22T08:53:44;22.73;;;15.00;;
61013;SDS011;46899;47.542;19.082;2024-03-22T08:56:46;21.70;;;14.05;;
61013;SDS011;46899;47.542;19.082;2024-03-22T08:59:48;21.10;;;13.27;;
61013;SDS011;46899;47.542;19.082;2024-03-22T09:02:49;20.27;;;14.50;;
61013;SDS011;46899;47.542;19.082;2024-03-22T09:05:52;21.35;;;14.45;;
61013;SDS011;46899;47.542;19.082;2024-03-22T09:08:54;19.42;;;14.07;;
61013;SDS011;46899;47.542;19.082;2024-03-22T09:11:59;17.63;;;13.67;;
61013;SDS011;46899;47.542;19.082;2024-03-22T09:15:01;20.37;;;15.25;;
61013;SDS011;46899;47.542;19.082;2024-03-22T09:18:03;18.90;;;13.80;;
61013;SDS011;46899;47.542;19.082;2024-03-22T09:21:05;20.02;;;13.85;;
61013;SDS011;46899;47.542;19.082;2024-03-22T09:24:10;22.33;;;14.47;;
61013;SDS011;46899;47.542;19.082;2024-03-22T09:27:12;20.35;;;14.43;;
61013;SDS011;46899;47.542;19.082;2024-03-22T09:30:14;24.27;;;15.70;;
61013;SDS011;46899;47.542;19.082;2024-03-22T09:33:18;20.75;;;14.80;;
61013;SDS011;46899;47.542;19.082;2024-03-22T09:36:20;19.55;;;14.70;;
61013;SDS011;46899;47.542;19.082;2024-03-22T09:39:23;20.02;;;14.27;;
61013;SDS011;46899;47.542;19.082;2024-03-22T09:42:26;18.37;;;14.48;;
61013;SDS011;46899;47.542;19.082;2024-03-22T09:45:33;19.65;;;14.70;;
61013;SDS011;46899;47.542;19.082;2024-03-22T09:48:35;17.85;;;14.20;;
61013;SDS011;46899;47.542;19.082;2024-03-22T09:51:41;20.62;;;15.18;;
61013;SDS011;46899;47.542;19.082;2024-03-22T09:54:44;18.70;;;13.75;;
61013;SDS011;46899;47.542;19.082;2024-03-22T09:57:47;21.25;;;14.73;;
61013;SDS011;46899;47.542;19.082;2024-03-22T10:00:51;20.70;;;14.32;;
61013;SDS011;46899;47.542;19.082;2024-03-22T10:03:54;21.00;;;15.63;;
61013;SDS011;46899;47.542;19.082;2024-03-22T10:06:56;19.67;;;15.02;;
61013;SDS011;46899;47.542;19.082;2024-03-22T10:09:58;20.62;;;14.80;;
61013;SDS011;46899;47.542;19.082;2024-03-22T10:13:00;23.58;;;14.52;;
61013;SDS011;46899;47.542;19.082;2024-03-22T10:16:03;18.90;;;15.10;;
61013;SDS011;46899;47.542;19.082;2024-03-22T10:19:05;18.62;;;15.40;;
61013;SDS011;46899;47.542;19.082;2024-03-22T10:22:07;22.17;;;15.45;;
61013;SDS011;46899;47.542;19.082;2024-03-22T10:25:09;21.62;;;15.40;;
61013;SDS011;46899;47.542;19.082;2024-03-22T10:28:12;18.48;;;13.30;;
61013;SDS011;46899;47.542;19.082;2024-03-22T10:31:15;18.05;;;13.25;;
61013;SDS011;46899;47.542;19.082;2024-03-22T10:34:17;16.77;;;13.85;;
61013;SDS011;46899;47.542;19.082;2024-03-22T10:37:20;18.23;;;13.60;;
61013;SDS011;46899;47.542;19.082;2024-03-22T10:40:25;16.47;;;12.73;;
61013;SDS011;46899;47.542;19.082;2024-03-22T10:43:29;13.38;;;11.85;;
61013;SDS011;46899;47.542;19.082;2024-03-22T10:46:31;14.85;;;11.57;;
61013;SDS011;46899;47.542;19.082;2024-03-22T10:49:34;16.70;;;12.20;;
61013;SDS011;46899;47.542;19.082;2024-03-22T10:53:23;18.35;;;13.60;;
61013;SDS011;46899;47.542;19.082;2024-03-22T10:56:08;16.92;;;12.93;;
61013;SDS011;46899;47.542;19.082;2024-03-22T10:59:14;15.55;;;12.27;;
61013;SDS011;46899;47.542;19.082;2024-03-22T11:02:23;18.98;;;13.55;;
61013;SDS011;46899;47.542;19.082;2024-03-22T11:05:26;14.90;;;11.88;;
61013;SDS011;46899;47.542;19.082;2024-03-22T11:08:28;17.30;;;12.85;;
61013;SDS011;46899;47.542;19.082;2024-03-22T11:11:32;15.65;;;13.00;;
61013;SDS011;46899;47.542;19.082;2024-03-22T11:14:38;17.27;;;11.85;;
61013;SDS011;46899;47.542;19.082;2024-03-22T11:17:40;18.30;;;13.07;;
61013;SDS011;46899;47.542;19.082;2024-03-22T11:20:43;15.93;;;13.15;;
61013;SDS011;46899;47.542;19.082;2024-03-22T11:23:47;17.02;;;13.45;;
61013;SDS011;46899;47.542;19.082;2024-03-22T11:26:49;15.95;;;13.35;;
61013;SDS011;46899;47.542;19.082;2024-03-22T11:29:51;18.35;;;14.13;;
61013;SDS011;46899;47.542;19.082;2024-03-22T11:32:56;18.05;;;14.00;;
61013;SDS011;46899;47.542;19.082;2024-03-22T11:35:59;18.00;;;13.82;;
61013;SDS011;46899;47.542;19.082;2024-03-22T11:39:01;14.05;;;11.85;;
61013;SDS011;46899;47.542;19.082;2024-03-22T11:42:06;16.37;;;11.82;;
61013;SDS011;46899;47.542;19.082;2024-03-22T11:45:10;14.52;;;12.15;;
61013;SDS011;46899;47.542;19.082;2024-03-22T11:48:13;15.82;;;11.77;;
61013;SDS011;46899;47.542;19.082;2024-03-22T11:51:15;16.52;;;12.60;;
61013;SDS011;46899;47.542;19.082;2024-03-22T11:54:18;11.57;;;9.88;;
61013;SDS011;46899;47.542;19.082;2024-03-22T11:57:21;13.77;;;10.02;;
61013;SDS011;46899;47.542;19.082;2024-03-22T12:00:23;12.93;;;10.00;;
61013;SDS011;46899;47.542;19.082;2024-03-22T12:03:27;11.52;;;8.90;;
61013;SDS011;46899;47.542;19.082;2024-03-22T12:06:29;11.82;;;8.88;;
61013;SDS011;46899;47.542;19.082;2024-03-22T12:09:31;13.52;;;9.50;;
61013;SDS011;46899;47.542;19.082;2024-03-22T12:12:33;11.07;;;8.88;;
61013;SDS011;46899;47.542;19.082;2024-03-22T12:15:35;13.05;;;9.27;;
61013;SDS011;46899;47.542;19.082;2024-03-22T12:18:37;11.68;;;8.88;;
61013;SDS011;46899;47.542;19.082;2024-03-22T12:21:39;13.07;;;9.43;;
61013;SDS011;46899;47.542;19.082;2024-03-22T12:24:41;12.85;;;8.82;;
61013;SDS011;46899;47.542;19.082;2024-03-22T12:27:43;14.13;;;10.10;;
61013;SDS011;46899;47.542;19.082;2024-03-22T12:30:48;13.65;;;9.75;;
61013;SDS011;46899;47.542;19.082;2024-03-22T12:33:51;17.33;;;11.63;;
61013;SDS011;46899;47.542;19.082;2024-03-22T12:36:53;15.65;;;12.40;;
61013;SDS011;46899;47.542;19.082;2024-03-22T12:39:55;18.12;;;12.05;;
61013;SDS011;46899;47.542;19.082;2024-03-22T12:42:56;13.62;;;10.98;;
61013;SDS011;46899;47.542;19.082;2024-03-22T12:45:59;14.73;;;11.85;;
61013;SDS011;46899;47.542;19.082;2024-03-22T12:49:01;13.20;;;10.93;;
61013;SDS011;46899;47.542;19.082;2024-03-22T12:52:03;14.45;;;10.70;;
61013;SDS011;46899;47.542;19.082;2024-03-22T12:55:05;13.57;;;10.60;;
61013;SDS011;46899;47.542;19.082;2024-03-22T12:58:08;13.23;;;11.12;;
61013;SDS011;46899;47.542;19.082;2024-03-22T13:01:09;12.68;;;10.13;;
61013;SDS011;46899;47.542;19.082;2024-03-22T13:04:14;16.65;;;11.60;;
61013;SDS011;46899;47.542;19.082;2024-03-22T13:07:16;12.18;;;10.55;;
61013;SDS011;46899;47.542;19.082;2024-03-22T13:10:21;15.18;;;10.45;;
61013;SDS011;46899;47.542;19.082;2024-03-22T13:13:23;15.55;;;11.00;;
61013;SDS011;46899;47.542;19.082;2024-03-22T13:16:25;15.85;;;11.02;;
61013;SDS011;46899;47.542;19.082;2024-03-22T13:19:26;14.77;;;10.95;;
61013;SDS011;46899;47.542;19.082;2024-03-22T13:22:28;13.65;;;10.40;;
61013;SDS011;46899;47.542;19.082;2024-03-22T13:25:30;14.30;;;10.05;;
61013;SDS011;46899;47.542;19.082;2024-03-22T13:28:33;13.55;;;11.05;;
61013;SDS011;46899;47.542;19.082;2024-03-22T13:31:35;14.15;;;10.35;;
61013;SDS011;46899;47.542;19.082;2024-03-22T13:34:38;15.13;;;10.73;;
61013;SDS011;46899;47.542;19.082;2024-03-22T13:37:43;13.52;;;10.75;;
61013;SDS011;46899;47.542;19.082;2024-03-22T13:40:52;15.82;;;10.30;;
61013;SDS011;46899;47.542;19.082;2024-03-22T13:43:57;12.82;;;9.43;;
61013;SDS011;46899;47.542;19.082;2024-03-22T13:46:59;13.50;;;9.98;;
61013;SDS011;46899;47.542;19.082;2024-03-22T13:50:00;13.75;;;10.02;;
61013;SDS011;46899;47.542;19.082;2024-03-22T13:53:03;13.57;;;10.48;;
61013;SDS011;46899;47.542;19.082;2024-03-22T13:56:05;12.77;;;10.00;;
61013;SDS011;46899;47.542;19.082;2024-03-22T13:59:08;13.70;;;11.07;;
61013;SDS011;46899;47.542;19.082;2024-03-22T14:02:10;13.65;;;11.07;;
61013;SDS011;46899;47.542;19.082;2024-03-22T14:05:12;14.23;;;11.07;;
61013;SDS011;46899;47.542;19.082;2024-03-22T14:08:14;12.35;;;10.05;;
61013;SDS011;46899;47.542;19.082;2024-03-22T14:11:16;11.70;;;9.25;;
61013;SDS011;46899;47.542;19.082;2024-03-22T14:14:18;11.90;;;8.88;;
61013;SDS011;46899;47.542;19.082;2024-03-22T14:17:20;10.50;;;8.52;;
61013;SDS011;46899;47.542;19.082;2024-03-22T14:20:22;10.65;;;7.87;;
61013;SDS011;46899;47.542;19.082;2024-03-22T14:23:25;10.00;;;8.00;;
61013;SDS011;46899;47.542;19.082;2024-03-22T14:26:26;11.18;;;8.63;;
61013;SDS011;46899;47.542;19.082;2024-03-22T14:29:29;10.80;;;8.60;;
61013;SDS011;46899;47.542;19.082;2024-03-22T14:32:33;10.63;;;8.00;;
61013;SDS011;46899;47.542;19.082;2024-03-22T14:35:36;11.32;;;8.45;;
61013;SDS011;46899;47.542;19.082;2024-03-22T14:38:39;10.18;;;7.43;;
61013;SDS011;46899;47.542;19.082;2024-03-22T14:41:41;10.88;;;7.90;;
61013;SDS011;46899;47.542;19.082;2024-03-22T14:44:43;10.85;;;7.70;;
61013;SDS011;46899;47.542;19.082;2024-03-22T14:47:45;11.10;;;7.70;;
61013;SDS011;46899;47.542;19.082;2024-03-22T14:50:47;10.07;;;7.12;;
61013;SDS011;46899;47.542;19.082;2024-03-22T14:53:50;9.45;;;7.60;;
61013;SDS011;46899;47.542;19.082;2024-03-22T14:56:52;11.20;;;7.70;;
61013;SDS011;46899;47.542;19.082;2024-03-22T14:59:55;13.48;;;7.62;;
61013;SDS011;46899;47.542;19.082;2024-03-22T15:02:57;10.93;;;7.07;;
61013;SDS011;46899;47.542;19.082;2024-03-22T15:05:59;13.07;;;7.50;;
61013;SDS011;46899;47.542;19.082;2024-03-22T15:09:01;10.70;;;6.75;;
61013;SDS011;46899;47.542;19.082;2024-03-22T15:12:10;10.30;;;6.97;;
61013;SDS011;46899;47.542;19.082;2024-03-22T15:15:12;9.77;;;7.18;;
61013;SDS011;46899;47.542;19.082;2024-03-22T15:18:14;10.05;;;7.80;;
61013;SDS011;46899;47.542;19.082;2024-03-22T15:21:16;67.85;;;10.77;;
61013;SDS011;46899;47.542;19.082;2024-03-22T15:24:18;19.40;;;7.10;;
61013;SDS011;46899;47.542;19.082;2024-03-22T15:27:21;10.02;;;6.68;;
61013;SDS011;46899;47.542;19.082;2024-03-22T15:30:22;8.82;;;6.00;;
61013;SDS011;46899;47.542;19.082;2024-03-22T15:33:24;10.02;;;6.18;;
61013;SDS011;46899;47.542;19.082;2024-03-22T15:36:26;9.18;;;5.72;;
61013;SDS011;46899;47.542;19.082;2024-03-22T15:39:28;7.60;;;5.37;;
61013;SDS011;46899;47.542;19.082;2024-03-22T15:42:30;6.70;;;5.40;;
61013;SDS011;46899;47.542;19.082;2024-03-22T15:45:32;6.60;;;4.80;;
61013;SDS011;46899;47.542;19.082;2024-03-22T15:48:35;6.57;;;4.95;;
61013;SDS011;46899;47.542;19.082;2024-03-22T15:51:37;7.75;;;5.25;;
61013;SDS011;46899;47.542;19.082;2024-03-22T15:54:42;7.25;;;5.35;;
61013;SDS011;46899;47.542;19.082;2024-03-22T15:57:44;10.80;;;5.95;;
61013;SDS011;46899;47.542;19.082;2024-03-22T16:00:46;7.55;;;6.07;;
61013;SDS011;46899;47.542;19.082;2024-03-22T16:03:49;9.23;;;6.10;;
61013;SDS011;46899;47.542;19.082;2024-03-22T16:06:51;9.95;;;6.50;;
61013;SDS011;46899;47.542;19.082;2024-03-22T16:09:53;10.38;;;7.00;;
61013;SDS011;46899;47.542;19.082;2024-03-22T16:12:56;10.15;;;6.78;;
61013;SDS011;46899;47.542;19.082;2024-03-22T16:15:58;12.40;;;7.82;;
61013;SDS011;46899;47.542;19.082;2024-03-22T16:19:00;9.75;;;7.35;;
61013;SDS011;46899;47.542;19.082;2024-03-22T16:22:03;11.20;;;7.93;;
61013;SDS011;46899;47.542;19.082;2024-03-22T16:25:06;9.93;;;7.18;;
61013;SDS011;46899;47.542;19.082;2024-03-22T16:28:08;9.95;;;6.87;;
61013;SDS011;46899;47.542;19.082;2024-03-22T16:31:10;8.88;;;6.50;;
61013;SDS011;46899;47.542;19.082;2024-03-22T16:34:12;9.50;;;6.87;;
61013;SDS011;46899;47.542;19.082;2024-03-22T16:37:13;11.82;;;6.20;;
61013;SDS011;46899;47.542;19.082;2024-03-22T16:40:16;8.02;;;6.20;;
61013;SDS011;46899;47.542;19.082;2024-03-22T16:43:18;8.40;;;5.78;;
61013;SDS011;46899;47.542;19.082;2024-03-22T16:46:21;8.98;;;5.68;;
61013;SDS011;46899;47.542;19.082;2024-03-22T16:49:23;7.93;;;5.72;;
61013;SDS011;46899;47.542;19.082;2024-03-22T16:52:25;8.07;;;5.10;;
61013;SDS011;46899;47.542;19.082;2024-03-22T16:55:29;8.95;;;5.53;;
61013;SDS011;46899;47.542;19.082;2024-03-22T16:58:31;8.90;;;5.53;;
61013;SDS011;46899;47.542;19.082;2024-03-22T17:01:33;10.27;;;5.57;;
61013;SDS011;46899;47.542;19.082;2024-03-22T17:04:35;9.40;;;5.60;;
61013;SDS011;46899;47.542;19.082;2024-03-22T17:07:37;10.73;;;5.43;;
61013;SDS011;46899;47.542;19.082;2024-03-22T17:10:40;7.10;;;4.65;;
61013;SDS011;46899;47.542;19.082;2024-03-22T17:13:42;6.97;;;5.05;;
61013;SDS011;46899;47.542;19.082;2024-03-22T17:16:45;6.80;;;4.75;;
61013;SDS011;46899;47.542;19.082;2024-03-22T17:19:48;7.78;;;5.18;;
61013;SDS011;46899;47.542;19.082;2024-03-22T17:22:50;10.88;;;5.37;;
61013;SDS011;46899;47.542;19.082;2024-03-22T17:25:58;10.80;;;5.20;;
61013;SDS011;46899;47.542;19.082;2024-03-22T17:29:01;8.48;;;4.50;;
61013;SDS011;46899;47.542;19.082;2024-03-22T17:32:03;7.78;;;5.05;;
61013;SDS011;46899;47.542;19.082;2024-03-22T17:35:05;9.02;;;5.18;;
61013;SDS011;46899;47.542;19.082;2024-03-22T17:38:07;11.93;;;5.50;;